createdAt,value
2019-04-21T00:00:14.837Z,38.65
2019-04-21T00:02:44.265Z,38.63
2019-04-21T00:05:43.124Z,38.79
2019-04-21T00:08:15.115Z,38.75
2019-04-21T00:10:38.266Z,38.70
2019-04-21T00:12:56.113Z,38.75
2019-04-21T00:15:24.389Z,38.71
2019-04-21T00:17:52.705Z,38.84
2019-04-21T00:20:31.080Z,38.84
2019-04-21T00:23:15.302Z,38.88
2019-04-21T00:25:39.884Z,38.85
2019-04-21T00:28:16.878Z,39.02
2019-04-21T00:30:44.259Z,39.06
2019-04-21T00:33:06.829Z,39.13
2019-04-21T00:35:31.049Z,39.07
2019-04-21T00:38:18.162Z,39.19
2019-04-21T00:40:53.893Z,39.13
2019-04-21T00:43:19.598Z,39.28
2019-04-21T00:45:44.922Z,39.30
2019-04-21T00:48:23.734Z,39.36
2019-04-21T00:51:10.948Z,39.26
2019-04-21T00:53:51.838Z,39.16
2019-04-21T00:56:15.674Z,39.00
2019-04-21T00:58:48.618Z,39.00
2019-04-21T01:01:15.211Z,38.92
2019-04-21T01:03:51.946Z,39.09
2019-04-21T01:06:22.652Z,39.12
2019-04-21T01:08:45.788Z,39.32
2019-04-21T01:11:20.747Z,39.27
2019-04-21T01:13:51.749Z,39.26
2019-04-21T01:16:27.007Z,39.42
2019-04-21T01:18:51.251Z,39.70
2019-04-21T01:21:13.375Z,39.49
2019-04-21T01:23:33.685Z,39.48
2019-04-21T01:26:17.765Z,39.36
2019-04-21T01:28:51.890Z,39.28
2019-04-21T01:31:22.942Z,39.45
2019-04-21T01:33:59.564Z,39.42
2019-04-21T01:36:24.208Z,39.61
2019-04-21T01:39:05.312Z,39.60
2019-04-21T01:41:37.176Z,39.68
2019-04-21T01:44:01.171Z,39.68
2019-04-21T01:46:29.653Z,39.51
2019-04-21T01:48:58.025Z,39.47
2019-04-21T01:51:32.696Z,39.43
2019-04-21T01:54:22.245Z,39.56
2019-04-21T01:56:57.324Z,39.69
2019-04-21T01:59:18.481Z,39.67
2019-04-21T02:02:00.341Z,39.52
2019-04-21T02:04:36.382Z,39.54
2019-04-21T02:07:07.389Z,39.59
2019-04-21T02:09:38.409Z,39.49
2019-04-21T02:12:10.603Z,39.50
2019-04-21T02:14:46.346Z,39.75
2019-04-21T02:17:13.237Z,39.78
2019-04-21T02:19:35.998Z,39.75
2019-04-21T02:22:04.592Z,39.98
2019-04-21T02:24:51.558Z,39.83
2019-04-21T02:27:14.828Z,39.85
2019-04-21T02:29:49.014Z,40.01
2019-04-21T02:32:24.727Z,39.93
2019-04-21T02:37:36.764Z,40.05
2019-04-21T02:40:05.123Z,40.19
2019-04-21T02:42:27.828Z,40.14
2019-04-21T02:45:00.390Z,40.22
2019-04-21T02:50:09.658Z,40.29
2019-04-21T02:52:35.614Z,40.48
2019-04-21T02:55:03.305Z,40.38
2019-04-21T02:57:51.428Z,40.40
2019-04-21T03:02:47.648Z,40.35
2019-04-21T03:05:32.029Z,40.42
2019-04-21T03:07:54.927Z,40.38
2019-04-21T03:10:26.267Z,40.27
2019-04-21T03:12:53.055Z,40.36
2019-04-21T03:18:01.768Z,40.33
2019-04-21T03:20:27.413Z,40.27
2019-04-21T03:23:00.141Z,40.24
2019-04-21T03:30:55.937Z,40.32
2019-04-21T03:38:05.768Z,40.53
2019-04-21T03:40:32.376Z,40.52
2019-04-21T03:43:04.915Z,40.53
2019-04-21T03:48:11.425Z,40.63
2019-04-21T03:50:33.744Z,40.74
2019-04-21T03:53:11.819Z,40.86
2019-04-21T04:01:00.603Z,40.66
2019-04-21T04:06:28.557Z,40.63
2019-04-21T04:09:19.460Z,40.57
2019-04-21T04:16:50.344Z,40.62
2019-04-21T04:19:18.683Z,40.51
2019-04-21T04:25:19.350Z,40.45
2019-04-21T04:30:34.022Z,40.79
2019-04-21T04:39:36.639Z,41.32
2019-04-21T04:45:26.614Z,41.22
2019-04-21T04:47:56.421Z,40.94
2019-04-21T04:50:20.130Z,40.88
2019-04-21T04:52:44.401Z,40.92
2019-04-21T04:55:18.974Z,41.21
2019-04-21T05:01:32.910Z,41.49
2019-04-21T05:04:30.394Z,41.58
2019-04-21T05:06:51.306Z,41.62
2019-04-21T05:09:33.083Z,41.52
2019-04-21T05:16:56.021Z,41.53
2019-04-21T05:19:20.845Z,41.62
2019-04-21T05:22:17.174Z,41.75
2019-04-21T05:24:44.022Z,41.85
2019-04-21T05:27:25.002Z,42.37
2019-04-21T05:30:17.352Z,42.42
2019-04-21T05:32:52.512Z,42.49
2019-04-21T05:35:43.691Z,42.48
2019-04-21T05:38:10.423Z,42.46
2019-04-21T05:40:35.964Z,43.04
2019-04-21T05:43:07.954Z,43.16
2019-04-21T05:45:50.139Z,43.50
2019-04-21T05:48:26.942Z,43.01
2019-04-21T05:50:49.332Z,43.45
2019-04-21T05:53:26.825Z,43.67
2019-04-21T05:58:21.355Z,43.81
2019-04-21T06:03:32.314Z,43.76
2019-04-21T06:06:00.385Z,43.84
2019-04-21T06:08:30.864Z,43.76
2019-04-21T06:11:18.670Z,44.03
2019-04-21T06:13:43.786Z,44.15
2019-04-21T06:16:24.178Z,43.81
2019-04-21T06:18:43.428Z,43.66
2019-04-21T06:21:06.424Z,43.80
2019-04-21T06:23:35.924Z,44.03
2019-04-21T06:41:53.194Z,44.22
2019-04-21T06:44:23.636Z,43.92
2019-04-21T06:50:29.959Z,43.64
2019-04-21T06:53:35.766Z,43.57
2019-04-21T07:13:29.383Z,42.89
2019-04-21T07:16:07.269Z,43.00
2019-04-21T07:18:47.436Z,43.31
2019-04-21T07:21:13.852Z,43.69
2019-04-21T07:23:47.210Z,44.14
2019-04-21T07:26:15.370Z,43.59
2019-04-21T07:28:47.966Z,43.37
2019-04-21T07:31:25.219Z,43.33
2019-04-21T07:34:30.449Z,43.64
2019-04-21T07:36:56.131Z,43.43
2019-04-21T07:42:23.806Z,43.33
2019-04-21T07:45:03.357Z,43.75
2019-04-21T07:47:55.481Z,43.86
2019-04-21T07:53:58.349Z,43.97
2019-04-21T07:56:09.461Z,43.65
2019-04-21T07:59:13.607Z,42.95
2019-04-21T08:01:45.436Z,42.42
2019-04-21T08:04:38.195Z,42.03
2019-04-21T08:16:34.102Z,40.75
2019-04-21T08:19:13.085Z,41.33
2019-04-21T08:25:01.083Z,42.44
2019-04-21T08:27:42.911Z,41.59
2019-04-21T08:30:11.653Z,41.66
2019-04-21T08:32:57.117Z,41.34
2019-04-21T08:41:19.585Z,41.02
2019-04-21T08:44:04.956Z,40.24
2019-04-21T08:46:52.794Z,38.97
2019-04-21T08:49:41.560Z,37.46
2019-04-21T08:52:36.843Z,36.00
2019-04-21T08:55:19.834Z,34.86
2019-04-21T08:58:18.909Z,34.94
2019-04-21T09:00:51.400Z,35.82
2019-04-21T09:03:41.410Z,35.32
2019-04-21T09:09:11.763Z,35.93
2019-04-21T09:11:49.926Z,36.29
2019-04-21T09:15:08.395Z,36.27
2019-04-21T09:17:00.440Z,35.86
2019-04-21T09:22:05.733Z,35.72
2019-04-21T09:24:58.268Z,35.80
2019-04-21T09:27:35.655Z,35.68
2019-04-21T09:29:57.708Z,35.01
2019-04-21T09:32:33.039Z,35.14
2019-04-21T09:38:13.266Z,34.36
2019-04-21T09:40:40.336Z,34.37
2019-04-21T09:43:10.312Z,34.17
2019-04-21T09:45:45.319Z,34.38
2019-04-21T09:48:19.003Z,34.61
2019-04-21T09:50:45.967Z,33.84
2019-04-21T09:56:31.525Z,32.61
2019-04-21T09:59:04.847Z,32.95
2019-04-21T10:01:30.825Z,32.66
2019-04-21T10:04:01.668Z,32.86
2019-04-21T10:06:47.555Z,33.35
2019-04-21T10:09:07.824Z,32.92
2019-04-21T10:11:37.637Z,32.17
2019-04-21T10:14:09.778Z,32.03
2019-04-21T10:16:52.173Z,32.39
2019-04-21T10:19:42.009Z,31.57
2019-04-21T10:22:12.512Z,31.37
2019-04-21T10:24:42.504Z,31.40
2019-04-21T10:27:17.188Z,31.25
2019-04-21T10:29:53.858Z,31.35
2019-04-21T10:32:28.188Z,30.98
2019-04-21T10:34:57.047Z,30.98
2019-04-21T10:37:47.332Z,30.59
2019-04-21T10:40:09.628Z,31.63
2019-04-21T10:42:58.361Z,30.89
2019-04-21T10:45:28.652Z,30.76
2019-04-21T10:48:00.953Z,30.92
2019-04-21T10:50:31.391Z,30.88
2019-04-21T10:53:20.935Z,31.12
2019-04-21T10:56:06.466Z,31.21
2019-04-21T10:58:34.353Z,31.40
2019-04-21T11:01:25.152Z,30.83
2019-04-21T11:04:21.172Z,30.21
2019-04-21T11:06:44.396Z,29.83
2019-04-21T11:09:26.470Z,29.55
2019-04-21T11:14:56.903Z,30.12
2019-04-21T11:17:34.839Z,29.70
2019-04-21T11:22:55.606Z,29.14
2019-04-21T11:25:48.184Z,28.88
2019-04-21T11:28:22.927Z,30.33
2019-04-21T11:31:11.232Z,29.69
2019-04-21T11:34:00.913Z,29.27
2019-04-21T11:36:27.004Z,29.19
2019-04-21T11:39:09.831Z,28.05
2019-04-21T11:41:45.741Z,27.89
2019-04-21T11:44:24.655Z,28.76
2019-04-21T11:47:10.574Z,28.39
2019-04-21T11:50:17.197Z,27.69
2019-04-21T11:52:47.326Z,27.57
2019-04-21T11:55:22.927Z,27.58
2019-04-21T11:57:53.491Z,27.84
2019-04-21T12:00:24.819Z,27.84
2019-04-21T12:03:15.239Z,27.99
2019-04-21T12:05:55.459Z,28.10
2019-04-21T12:08:34.367Z,28.24
2019-04-21T12:11:03.459Z,27.71
2019-04-21T12:13:40.415Z,27.60
2019-04-21T12:16:14.990Z,28.08
2019-04-21T12:19:03.370Z,28.08
2019-04-21T12:21:25.177Z,27.74
2019-04-21T12:23:54.938Z,27.83
2019-04-21T12:26:24.199Z,27.41
2019-04-21T12:31:49.822Z,28.39
2019-04-21T12:34:25.932Z,27.04
2019-04-21T12:36:55.145Z,26.65
2019-04-21T12:39:36.911Z,26.36
2019-04-21T12:42:34.453Z,26.58
2019-04-21T12:45:09.848Z,26.28
2019-04-21T12:47:39.759Z,26.31
2019-04-21T12:50:10.959Z,26.15
2019-04-21T12:52:40.370Z,25.92
2019-04-21T12:55:13.534Z,25.42
2019-04-21T12:57:43.529Z,26.35
2019-04-21T13:00:22.727Z,26.06
2019-04-21T13:03:01.679Z,25.50
2019-04-21T13:05:35.785Z,25.78
2019-04-21T13:08:19.780Z,26.01
2019-04-21T13:11:17.552Z,25.72
2019-04-21T13:14:06.103Z,25.66
2019-04-21T13:16:37.166Z,25.91
2019-04-21T13:19:09.243Z,25.78
2019-04-21T13:21:40.832Z,26.04
2019-04-21T13:27:22.907Z,26.01
2019-04-21T13:34:06.133Z,26.46
2019-04-21T13:36:35.974Z,25.25
2019-04-21T13:39:53.679Z,25.43
2019-04-21T13:42:19.646Z,25.22
2019-04-21T13:44:57.200Z,25.42
2019-04-21T13:50:46.944Z,25.12
2019-04-21T13:56:47.610Z,25.85
2019-04-21T14:08:00.869Z,25.53
2019-04-21T14:11:09.330Z,25.28
2019-04-21T14:14:28.365Z,25.18
2019-04-21T14:17:08.904Z,25.20
2019-04-21T14:22:35.897Z,25.06
2019-04-21T14:25:15.129Z,24.68
2019-04-21T14:27:52.094Z,24.71
2019-04-21T14:30:28.313Z,24.72
2019-04-21T14:33:04.463Z,24.51
2019-04-21T14:35:43.074Z,24.62
2019-04-21T14:38:20.727Z,24.54
2019-04-21T14:40:57.541Z,24.78
2019-04-21T14:43:34.087Z,24.47
2019-04-21T14:46:11.538Z,24.34
2019-04-21T14:52:10.762Z,24.10
2019-04-21T14:54:51.037Z,24.51
2019-04-21T14:57:27.280Z,24.80
2019-04-21T15:00:13.369Z,24.60
2019-04-21T15:06:25.541Z,24.83
2019-04-21T15:09:00.976Z,24.16
2019-04-21T15:11:34.350Z,23.54
2019-04-21T15:14:04.110Z,23.78
2019-04-21T15:16:38.692Z,23.95
2019-04-21T15:19:17.991Z,23.69
2019-04-21T15:21:52.413Z,23.63
2019-04-21T15:24:34.273Z,23.67
2019-04-21T15:27:09.226Z,24.07
2019-04-21T15:29:42.792Z,23.79
2019-04-21T15:32:16.868Z,23.91
2019-04-21T15:54:26.952Z,24.02
2019-04-21T15:57:00.813Z,24.14
2019-04-21T16:02:30.684Z,24.54
2019-04-21T16:05:04.791Z,24.66
2019-04-21T16:07:36.192Z,24.57
2019-04-21T16:10:13.051Z,25.01
2019-04-21T16:12:53.885Z,24.78
2019-04-21T16:18:09.993Z,24.56
2019-04-21T16:20:43.904Z,24.72
2019-04-21T16:23:24.613Z,24.79
2019-04-21T16:26:08.744Z,24.44
2019-04-21T16:28:59.814Z,24.79
2019-04-21T16:31:36.343Z,24.51
2019-04-21T16:36:43.506Z,24.68
2019-04-21T16:39:13.511Z,24.80
2019-04-21T16:41:52.102Z,24.60
2019-04-21T16:44:27.371Z,24.84
2019-04-21T16:46:59.314Z,24.82
2019-04-21T16:50:09.846Z,25.00
2019-04-21T16:52:32.109Z,25.21
2019-04-21T16:58:30.755Z,25.23
2019-04-21T17:01:11.988Z,25.36
2019-04-21T17:07:18.046Z,24.88
2019-04-21T17:10:12.718Z,25.23
2019-04-21T17:16:16.846Z,25.40
2019-04-21T17:22:28.131Z,25.48
2019-04-21T17:24:58.265Z,25.82
2019-04-21T17:27:29.218Z,25.66
2019-04-21T17:30:22.357Z,25.95
2019-04-21T17:32:59.601Z,26.19
2019-04-21T17:35:53.801Z,26.35
2019-04-21T17:38:37.314Z,26.43
2019-04-21T17:41:23.224Z,26.46
2019-04-21T17:44:02.427Z,26.54
2019-04-21T17:50:02.616Z,26.67
2019-04-21T17:52:42.854Z,26.72
2019-04-21T17:55:18.433Z,26.69
2019-04-21T17:58:52.462Z,26.68
2019-04-21T18:01:35.869Z,26.76
2019-04-21T18:04:10.626Z,26.97
2019-04-21T18:10:07.637Z,27.09
2019-04-21T18:12:16.623Z,27.04
2019-04-21T18:14:32.835Z,27.10
2019-04-21T18:17:02.494Z,27.05
2019-04-21T18:19:36.368Z,27.01
2019-04-21T18:22:17.479Z,27.07
2019-04-21T18:25:10.462Z,27.13
2019-04-21T18:30:40.373Z,27.12
2019-04-21T18:33:14.269Z,27.09
2019-04-21T18:36:03.623Z,27.11
2019-04-21T18:39:00.007Z,27.10
2019-04-21T18:41:19.896Z,27.03
2019-04-21T18:44:38.796Z,27.03
2019-04-21T18:47:13.888Z,27.03
2019-04-21T18:52:56.364Z,27.10
2019-04-21T18:55:29.448Z,27.33
2019-04-21T18:57:55.032Z,27.41
2019-04-21T19:00:31.777Z,27.46
2019-04-21T19:03:02.020Z,27.60
2019-04-21T19:08:48.465Z,27.70
2019-04-21T19:11:25.421Z,27.86
2019-04-21T19:14:28.959Z,27.88
2019-04-21T19:16:53.957Z,27.98
2019-04-21T19:19:41.189Z,27.98
2019-04-21T19:22:00.687Z,28.03
2019-04-21T19:24:32.100Z,28.01
2019-04-21T19:29:28.736Z,28.04
2019-04-21T19:32:05.742Z,28.08
2019-04-21T19:34:18.778Z,28.07
2019-04-21T19:36:51.295Z,28.08
2019-04-21T19:39:27.068Z,28.13
2019-04-21T19:41:58.611Z,28.17
2019-04-21T19:44:35.260Z,28.18
2019-04-21T19:47:03.889Z,28.25
2019-04-21T19:49:40.006Z,28.29
2019-04-21T19:51:57.481Z,28.32
2019-04-21T19:54:27.692Z,28.42
2019-04-21T19:56:51.441Z,28.55
2019-04-21T19:59:30.699Z,28.70
2019-04-21T20:01:51.472Z,28.80
2019-04-21T20:04:20.601Z,28.89
2019-04-21T20:07:01.711Z,29.00
2019-04-21T20:09:37.080Z,29.04
2019-04-21T20:12:06.635Z,29.09
2019-04-21T20:15:00.676Z,29.15
2019-04-21T20:17:08.925Z,29.14
2019-04-21T20:19:24.815Z,29.17
2019-04-21T20:21:54.366Z,29.22
2019-04-21T20:24:28.297Z,29.18
2019-04-21T20:27:02.265Z,29.15
2019-04-21T20:32:55.935Z,29.28
2019-04-21T20:35:35.208Z,29.34
2019-04-21T20:37:52.566Z,29.37
2019-04-21T20:40:25.100Z,29.31
2019-04-21T20:43:07.155Z,29.35
2019-04-21T20:45:33.486Z,29.42
2019-04-21T20:47:51.643Z,29.47
2019-04-21T20:50:31.077Z,29.43
2019-04-21T20:53:06.117Z,29.40
2019-04-21T20:55:35.484Z,29.51
2019-04-21T20:58:30.885Z,29.43
2019-04-21T21:06:45.557Z,29.51
2019-04-21T21:09:14.082Z,29.59
2019-04-21T21:12:06.607Z,29.69
2019-04-21T21:14:16.126Z,29.75
2019-04-21T21:16:50.577Z,29.78
2019-04-21T21:19:22.078Z,29.89
2019-04-21T21:21:49.968Z,29.90
2019-04-21T21:24:22.198Z,29.99
2019-04-21T21:26:56.203Z,29.98
2019-04-21T21:29:23.432Z,30.09
2019-04-21T21:31:55.562Z,30.02
2019-04-21T21:34:27.539Z,29.97
2019-04-21T21:36:55.054Z,30.06
2019-04-21T21:39:31.811Z,30.09
2019-04-21T21:41:48.562Z,30.09
2019-04-21T21:44:17.859Z,30.18
2019-04-21T21:46:56.954Z,30.21
2019-04-21T21:49:28.359Z,30.27
2019-04-21T21:51:56.857Z,30.30
2019-04-21T21:54:15.939Z,30.35
2019-04-21T21:56:44.761Z,30.29
2019-04-21T21:59:20.680Z,30.01
2019-04-21T22:01:51.897Z,30.38
2019-04-21T22:04:24.174Z,30.41
2019-04-21T22:06:55.354Z,30.58
2019-04-21T22:09:18.603Z,30.71
2019-04-21T22:11:49.550Z,30.75
2019-04-21T22:14:25.849Z,30.76
2019-04-21T22:17:07.536Z,30.96
2019-04-21T22:19:48.089Z,31.00
2019-04-21T22:22:11.496Z,30.97
2019-04-21T22:24:38.865Z,31.06
2019-04-21T22:26:52.779Z,31.26
2019-04-21T22:29:23.529Z,31.33
2019-04-21T22:32:05.534Z,31.32
2019-04-21T22:34:31.588Z,31.19
2019-04-21T22:37:07.298Z,31.22
2019-04-21T22:39:45.949Z,31.00
2019-04-21T22:42:05.535Z,31.00
2019-04-21T22:44:28.140Z,31.06
2019-04-21T22:47:07.231Z,31.00
2019-04-21T22:49:28.643Z,30.95
2019-04-21T22:52:03.968Z,31.41
2019-04-21T22:54:34.323Z,31.27
2019-04-21T22:57:07.345Z,31.24
2019-04-21T22:59:32.030Z,31.29
2019-04-21T23:02:01.546Z,31.30
2019-04-21T23:04:36.812Z,31.25
2019-04-21T23:07:07.645Z,31.31
2019-04-21T23:09:33.047Z,31.23
2019-04-21T23:12:03.262Z,31.38
2019-04-21T23:14:45.322Z,31.36
2019-04-21T23:17:24.196Z,31.49
2019-04-21T23:19:46.037Z,31.44
2019-04-21T23:22:21.394Z,31.49
2019-04-21T23:24:59.132Z,31.47
2019-04-21T23:27:20.349Z,31.55
2019-04-21T23:30:00.534Z,31.52
2019-04-21T23:32:23.542Z,31.60
2019-04-21T23:34:42.448Z,31.59
2019-04-21T23:37:17.795Z,31.54
2019-04-21T23:39:43.483Z,31.62
2019-04-21T23:42:22.551Z,31.56
2019-04-21T23:44:49.160Z,31.56
2019-04-21T23:47:30.325Z,31.75
2019-04-21T23:49:55.782Z,31.70
2019-04-21T23:52:17.839Z,31.85
2019-04-21T23:54:47.366Z,31.77
2019-04-21T23:57:26.909Z,31.83
2019-04-21T23:59:53.467Z,31.89
